Time;durP1;ratioP1;P1;durP2;ratioP2;P2;SDS_P1;SDS_P2;PMS_P1;PMS_P2;Temp;Humidity;BMP_temperature;BMP_pressure;BME280_temperature;BME280_humidity;BME280_pressure;Samples;Min_cycle;Max_cycle;Signal;HPM_P1;HPM_P2
2022/06/08 00:01:40;;;;;;;0.00;0.00;;;11.80;99.90;;;;;;5053843;28;20496;-82
2022/06/08 00:04:09;;;;;;;0.00;0.00;;;11.80;99.90;;;;;;5053391;28;20147;-82
2022/06/08 00:06:34;;;;;;;1.20;0.00;;;11.70;99.90;;;;;;5036879;28;20056;-81
2022/06/08 00:09:00;;;;;;;0.00;0.00;;;11.70;99.90;;;;;;5053508;28;20060;-82
2022/06/08 00:11:26;;;;;;;0.00;0.00;;;11.70;99.90;;;;;;5037095;28;20108;-82
2022/06/08 00:13:52;;;;;;;0.20;0.20;;;11.60;99.90;;;;;;5053691;28;20131;-82
2022/06/08 00:16:18;;;;;;;0.00;0.00;;;11.60;99.90;;;;;;5053816;28;20080;-82
2022/06/08 00:18:45;;;;;;;0.00;0.00;;;11.60;99.90;;;;;;5053417;28;20053;-82
2022/06/08 00:21:12;;;;;;;0.03;0.00;;;11.60;99.90;;;;;;5052837;28;20041;-82
2022/06/08 00:23:38;;;;;;;0.00;0.00;;;11.60;99.90;;;;;;5053162;28;20064;-81
2022/06/08 00:26:05;;;;;;;0.00;0.00;;;11.60;99.90;;;;;;5052763;28;20041;-82
2022/06/08 00:28:31;;;;;;;0.08;0.00;;;11.70;99.90;;;;;;5036281;28;20532;-82
2022/06/08 00:30:58;;;;;;;0.00;0.00;;;11.70;99.90;;;;;;5053153;28;20049;-82
2022/06/08 00:33:24;;;;;;;0.00;0.00;;;11.70;99.90;;;;;;5036143;28;20049;-82
2022/06/08 00:35:50;;;;;;;0.00;0.00;;;11.80;99.90;;;;;;5052946;28;20049;-82
2022/06/08 00:38:18;;;;;;;0.00;0.00;;;11.80;99.90;;;;;;5036050;28;20091;-82
2022/06/08 00:40:53;;;;;;;0.00;0.00;;;11.90;99.90;;;;;;5053005;28;20041;-82
2022/06/08 00:43:19;;;;;;;0.00;0.00;;;12.00;99.90;;;;;;5036966;28;20056;-82
2022/06/08 00:45:46;;;;;;;0.00;0.00;;;12.00;99.90;;;;;;5053256;28;20393;-82
2022/06/08 00:48:13;;;;;;;0.00;0.00;;;12.00;99.90;;;;;;5052724;28;20493;-82
2022/06/08 00:50:43;;;;;;;0.00;0.00;;;12.00;99.90;;;;;;5035901;28;20408;-82
2022/06/08 00:53:13;;;;;;;0.00;0.00;;;12.10;99.90;;;;;;5053176;28;20051;-82
2022/06/08 00:55:41;;;;;;;0.30;0.28;;;12.10;99.90;;;;;;5036287;28;20229;-82
2022/06/08 00:58:29;;;;;;;0.00;0.00;;;12.20;99.90;;;;;;5052902;28;20140;-82
2022/06/08 01:00:55;;;;;;;0.10;0.00;;;12.20;99.90;;;;;;5036012;28;20080;-82
2022/06/08 01:03:21;;;;;;;0.00;0.00;;;12.30;99.90;;;;;;5052791;28;20048;-82
2022/06/08 01:06:03;;;;;;;0.00;0.00;;;12.30;99.90;;;;;;5052480;28;20053;-82
2022/06/08 01:08:35;;;;;;;0.15;0.00;;;12.30;99.90;;;;;;5052884;28;20403;-82
2022/06/08 01:11:10;;;;;;;0.00;0.00;;;12.30;99.90;;;;;;5036246;28;20496;-82
2022/06/08 01:13:38;;;;;;;0.00;0.00;;;12.30;99.90;;;;;;5035926;28;20464;-82
2022/06/08 01:16:06;;;;;;;0.00;0.00;;;12.40;99.90;;;;;;5052892;28;20060;-82
2022/06/08 01:18:33;;;;;;;0.00;0.00;;;12.40;99.90;;;;;;5052924;28;20131;-81
2022/06/08 01:21:21;;;;;;;0.00;0.00;;;12.40;99.90;;;;;;5036797;28;20103;-82
2022/06/08 01:23:49;;;;;;;0.20;0.20;;;12.50;99.90;;;;;;5052680;28;20076;-81
2022/06/08 01:26:51;;;;;;;0.00;0.00;;;12.50;99.90;;;;;;5035879;28;20079;-82
2022/06/08 01:29:27;;;;;;;0.00;0.00;;;12.50;99.90;;;;;;5035922;28;20044;-81
2022/06/08 01:32:26;;;;;;;0.00;0.00;;;12.50;99.90;;;;;;5036176;28;20136;-82
2022/06/08 01:34:55;;;;;;;0.10;0.08;;;12.50;99.90;;;;;;5036190;28;20048;-81
2022/06/08 01:37:45;;;;;;;0.00;0.00;;;12.60;99.90;;;;;;5052505;28;20392;-82
2022/06/08 01:40:31;;;;;;;0.00;0.00;;;12.60;99.90;;;;;;5035929;28;20166;-82
2022/06/08 01:43:09;;;;;;;0.00;0.00;;;12.60;99.90;;;;;;5052459;28;20041;-82
2022/06/08 01:45:44;;;;;;;0.10;0.10;;;12.60;99.90;;;;;;5037425;28;20045;-82
2022/06/08 01:48:15;;;;;;;0.00;0.00;;;12.60;99.90;;;;;;5056208;28;20044;-82
2022/06/08 01:50:50;;;;;;;0.20;0.20;;;12.60;99.90;;;;;;5056172;28;20053;-82
2022/06/08 01:53:34;;;;;;;0.00;0.00;;;12.60;99.90;;;;;;5056054;28;20057;-82
2022/06/08 01:56:38;;;;;;;0.45;0.00;;;12.60;99.90;;;;;;5056981;28;20107;-82
2022/06/08 01:59:24;;;;;;;0.00;0.00;;;12.60;99.90;;;;;;4963449;28;20054;-82
2022/06/08 02:02:10;;;;;;;0.00;0.00;;;12.60;99.90;;;;;;4979525;28;20560;-82
2022/06/08 02:04:45;;;;;;;0.00;0.00;;;12.60;99.90;;;;;;4963159;28;20427;-82
2022/06/08 02:07:35;;;;;;;0.00;0.00;;;12.60;99.90;;;;;;4979323;28;20054;-82
2022/06/08 02:10:55;;;;;;;0.00;0.00;;;12.70;99.90;;;;;;4963239;28;20409;-82
2022/06/08 02:13:55;;;;;;;0.10;0.08;;;12.70;99.90;;;;;;4921893;29;20058;-82
2022/06/08 02:16:29;;;;;;;0.00;0.00;;;12.70;99.90;;;;;;4906484;29;20063;-83
2022/06/08 02:19:11;;;;;;;0.00;0.00;;;12.70;99.90;;;;;;4921677;29;20059;-82
2022/06/08 02:21:42;;;;;;;0.10;0.00;;;12.70;99.90;;;;;;4921818;29;20295;-82
2022/06/08 02:24:34;;;;;;;0.70;0.40;;;12.70;99.90;;;;;;4937409;29;20528;-82
2022/06/08 02:27:07;;;;;;;0.20;0.00;;;12.70;99.90;;;;;;4903815;29;20059;-82
2022/06/08 02:29:50;;;;;;;0.00;0.00;;;12.70;99.90;;;;;;4919283;29;20056;-82
2022/06/08 02:35:22;;;;;;;0.10;0.10;;;12.60;99.90;;;;;;4936692;28;20057;-82
2022/06/08 02:37:52;;;;;;;0.10;0.10;;;12.60;99.90;;;;;;4978816;28;20104;-82
2022/06/08 02:40:26;;;;;;;0.45;0.10;;;12.70;99.90;;;;;;4978914;28;20135;-82
2022/06/08 02:43:02;;;;;;;0.00;0.00;;;12.60;99.90;;;;;;4978918;28;20077;-82
2022/06/08 02:45:35;;;;;;;0.10;0.10;;;12.60;99.90;;;;;;5038655;28;20502;-82
2022/06/08 02:48:04;;;;;;;0.75;0.22;;;12.60;99.90;;;;;;5038582;28;20044;-82
2022/06/08 02:50:32;;;;;;;0.00;0.00;;;12.60;99.90;;;;;;5038445;28;20049;-81
2022/06/08 02:53:29;;;;;;;0.00;0.00;;;12.50;99.90;;;;;;5038411;28;20213;-82
2022/06/08 02:56:01;;;;;;;0.10;0.00;;;12.60;99.90;;;;;;5054584;28;20037;-82
2022/06/08 02:58:46;;;;;;;0.80;0.30;;;12.60;99.90;;;;;;5037643;28;20049;-82
2022/06/08 03:01:48;;;;;;;0.00;0.00;;;12.60;99.90;;;;;;5038349;28;20106;-82
2022/06/08 03:04:40;;;;;;;0.00;0.00;;;12.70;99.90;;;;;;4978759;28;20490;-82
2022/06/08 03:07:16;;;;;;;0.00;0.00;;;12.60;99.90;;;;;;4962266;28;20047;-82
2022/06/08 03:09:45;;;;;;;0.00;0.00;;;12.70;99.90;;;;;;4978608;28;20050;-82
2022/06/08 03:12:19;;;;;;;0.00;0.00;;;12.70;99.90;;;;;;4962158;28;20046;-82
2022/06/08 03:14:47;;;;;;;0.00;0.00;;;12.70;99.90;;;;;;4978293;28;20054;-82
2022/06/08 03:17:16;;;;;;;0.00;0.00;;;12.70;99.90;;;;;;4978072;28;20082;-82
2022/06/08 03:19:42;;;;;;;0.00;0.00;;;12.80;99.90;;;;;;4977940;28;20129;-82
2022/06/08 03:22:07;;;;;;;0.50;0.32;;;12.70;99.90;;;;;;4978136;28;20141;-82
2022/06/08 03:24:33;;;;;;;0.10;0.00;;;12.70;99.90;;;;;;4978021;28;20054;-82
2022/06/08 03:27:08;;;;;;;0.30;0.15;;;12.70;99.90;;;;;;4977836;28;20482;-83
2022/06/08 03:29:34;;;;;;;0.00;0.00;;;12.70;99.90;;;;;;4961668;28;20141;-82
2022/06/08 03:32:00;;;;;;;0.00;0.00;;;12.80;99.90;;;;;;4978037;28;20129;-82
2022/06/08 03:34:26;;;;;;;0.20;0.00;;;12.80;99.90;;;;;;4977795;28;20054;-82
2022/06/08 03:36:51;;;;;;;0.00;0.00;;;12.80;99.90;;;;;;4977999;28;20046;-82
2022/06/08 03:39:17;;;;;;;0.10;0.10;;;12.80;99.90;;;;;;4977566;28;20139;-82
2022/06/08 03:41:44;;;;;;;0.47;0.30;;;12.80;99.90;;;;;;5015324;28;20056;-82
2022/06/08 03:44:10;;;;;;;0.00;0.00;;;12.80;99.90;;;;;;5054082;28;20041;-82
2022/06/08 03:46:40;;;;;;;0.00;0.00;;;12.90;99.90;;;;;;5053968;28;20057;-82
2022/06/08 03:49:08;;;;;;;0.32;0.30;;;12.90;99.90;;;;;;5053645;28;20493;-81
2022/06/08 03:51:37;;;;;;;0.10;0.00;;;13.00;99.90;;;;;;5037366;28;20056;-80
2022/06/08 03:54:08;;;;;;;0.10;0.10;;;12.90;99.90;;;;;;5036973;28;20374;-82
2022/06/08 03:56:35;;;;;;;0.10;0.10;;;12.90;99.90;;;;;;5037447;28;20135;-82
2022/06/08 03:59:02;;;;;;;0.32;0.15;;;12.90;99.90;;;;;;5054167;28;20411;-82
2022/06/08 04:01:28;;;;;;;0.00;0.00;;;13.00;99.90;;;;;;5053636;28;20158;-82
2022/06/08 04:03:55;;;;;;;5.60;0.98;;;13.10;99.90;;;;;;5036982;28;20056;-82
2022/06/08 04:06:21;;;;;;;0.10;0.05;;;13.10;99.90;;;;;;5053104;28;20060;-82
2022/06/08 04:08:47;;;;;;;0.00;0.00;;;13.10;99.90;;;;;;5036770;28;20095;-82
2022/06/08 04:11:13;;;;;;;1.33;0.25;;;13.00;99.90;;;;;;5036737;28;20052;-83
2022/06/08 04:13:39;;;;;;;0.35;0.35;;;13.10;99.90;;;;;;5053381;28;20052;-82
2022/06/08 04:16:06;;;;;;;0.10;0.05;;;13.20;99.90;;;;;;5053499;28;20041;-82
2022/06/08 04:18:32;;;;;;;0.52;0.52;;;13.20;99.90;;;;;;5036883;28;20049;-82
2022/06/08 04:20:59;;;;;;;0.05;0.00;;;13.20;99.90;;;;;;5036586;28;20084;-82
2022/06/08 04:23:27;;;;;;;0.22;0.00;;;13.20;99.90;;;;;;5053338;28;20041;-82
2022/06/08 04:25:54;;;;;;;0.00;0.00;;;13.20;99.90;;;;;;5037236;28;20132;-82
2022/06/08 04:28:21;;;;;;;0.00;0.00;;;13.20;99.90;;;;;;5036378;28;20033;-82
2022/06/08 04:30:47;;;;;;;1.20;0.35;;;13.30;99.90;;;;;;5053356;28;20139;-82
2022/06/08 04:33:13;;;;;;;0.10;0.10;;;13.30;99.90;;;;;;5036188;28;20053;-82
2022/06/08 04:35:39;;;;;;;0.13;0.08;;;13.30;99.90;;;;;;5053159;28;20404;-82
2022/06/08 04:38:06;;;;;;;0.10;0.10;;;13.30;99.90;;;;;;5036453;28;20388;-82
2022/06/08 04:40:33;;;;;;;0.00;0.00;;;13.40;99.90;;;;;;5036472;28;20048;-82
2022/06/08 04:42:59;;;;;;;0.10;0.10;;;13.40;99.90;;;;;;5037193;28;20412;-82
2022/06/08 04:45:26;;;;;;;0.52;0.28;;;13.50;99.90;;;;;;5052882;28;20044;-82
2022/06/08 04:47:51;;;;;;;0.00;0.00;;;13.50;99.90;;;;;;5035965;28;20416;-82
2022/06/08 04:50:17;;;;;;;0.00;0.00;;;13.60;99.90;;;;;;5052910;28;20048;-83
2022/06/08 04:52:43;;;;;;;1.00;0.43;;;13.60;99.90;;;;;;5036203;28;20057;-82
2022/06/08 04:55:11;;;;;;;0.10;0.10;;;13.70;99.90;;;;;;5036222;28;20068;-82
2022/06/08 04:57:37;;;;;;;0.08;0.00;;;13.90;99.90;;;;;;5053404;28;20085;-82
2022/06/08 05:00:10;;;;;;;1.27;0.38;;;13.90;99.90;;;;;;5036387;28;20099;-82
2022/06/08 05:02:44;;;;;;;0.00;0.00;;;13.90;99.90;;;;;;5052948;28;20045;-82
2022/06/08 05:05:26;;;;;;;0.00;0.00;;;14.00;99.90;;;;;;5035817;28;20045;-82
2022/06/08 05:07:53;;;;;;;0.10;0.03;;;14.10;99.90;;;;;;5036106;28;20147;-80
2022/06/08 05:10:22;;;;;;;0.00;0.00;;;14.10;99.90;;;;;;5036199;28;20048;-80
2022/06/08 05:12:48;;;;;;;0.00;0.00;;;14.10;99.90;;;;;;5036107;28;20076;-81
2022/06/08 05:15:17;;;;;;;0.10;0.10;;;14.20;99.90;;;;;;5052660;28;20481;-82
2022/06/08 05:17:43;;;;;;;0.00;0.00;;;14.20;99.90;;;;;;5052829;28;20091;-81
2022/06/08 05:20:10;;;;;;;1.20;0.10;;;14.30;99.90;;;;;;5053976;28;20698;-81
2022/06/08 05:22:37;;;;;;;0.43;0.43;;;14.40;99.90;;;;;;5040103;28;20049;-81
2022/06/08 05:25:05;;;;;;;0.85;0.28;;;14.40;99.90;;;;;;5056977;28;20052;-82
2022/06/08 05:27:31;;;;;;;0.10;0.10;;;14.40;99.90;;;;;;5039853;28;20047;-81
2022/06/08 05:29:56;;;;;;;0.15;0.15;;;14.40;99.90;;;;;;5040023;28;20132;-81
2022/06/08 05:32:22;;;;;;;0.38;0.00;;;14.50;99.90;;;;;;5056978;28;20037;-82
2022/06/08 05:34:48;;;;;;;0.10;0.10;;;14.60;99.90;;;;;;5040447;28;20053;-81
2022/06/08 05:37:14;;;;;;;0.08;0.05;;;14.70;99.90;;;;;;5057006;28;20135;-82
2022/06/08 05:39:41;;;;;;;0.20;0.13;;;14.70;99.90;;;;;;5056517;28;20087;-82
2022/06/08 05:42:08;;;;;;;0.22;0.22;;;14.80;99.90;;;;;;5056425;28;20056;-81
2022/06/08 05:44:35;;;;;;;0.40;0.40;;;14.90;99.90;;;;;;5056517;28;20060;-81
2022/06/08 05:47:02;;;;;;;0.10;0.05;;;15.00;99.90;;;;;;5056382;28;20053;-82
2022/06/08 05:49:33;;;;;;;0.47;0.47;;;15.10;99.90;;;;;;5039822;28;20179;-82
2022/06/08 05:51:59;;;;;;;0.10;0.10;;;15.30;99.90;;;;;;5039812;28;20044;-81
2022/06/08 05:54:25;;;;;;;0.10;0.10;;;15.30;99.90;;;;;;5039901;28;20045;-81
2022/06/08 05:56:51;;;;;;;0.80;0.10;;;15.50;99.90;;;;;;5056141;28;20051;-81
2022/06/08 05:59:16;;;;;;;0.20;0.20;;;15.50;99.90;;;;;;5039404;28;20051;-82
2022/06/08 06:01:42;;;;;;;1.58;0.65;;;15.60;99.90;;;;;;5055828;28;20041;-81
2022/06/08 06:04:08;;;;;;;0.10;0.10;;;15.60;99.90;;;;;;5055897;28;20057;-82
2022/06/08 06:06:35;;;;;;;0.00;0.00;;;15.80;99.90;;;;;;5056040;28;20045;-82
2022/06/08 06:09:02;;;;;;;0.10;0.10;;;15.90;99.90;;;;;;5038984;28;20048;-83
2022/06/08 06:11:28;;;;;;;1.00;0.55;;;16.00;99.90;;;;;;5055514;28;20485;-82
2022/06/08 06:13:53;;;;;;;0.00;0.00;;;16.10;99.90;;;;;;5039425;28;20049;-82
2022/06/08 06:16:19;;;;;;;0.10;0.10;;;16.10;99.90;;;;;;5055981;28;20053;-82
2022/06/08 06:18:45;;;;;;;0.35;0.35;;;16.20;99.90;;;;;;5055812;28;20049;-81
2022/06/08 06:21:17;;;;;;;0.10;0.10;;;16.40;99.90;;;;;;5039280;28;20095;-82
2022/06/08 06:23:42;;;;;;;0.88;0.35;;;16.40;99.90;;;;;;5055633;28;20070;-82
2022/06/08 06:26:08;;;;;;;1.73;0.65;;;16.50;99.90;;;;;;5055590;28;20051;-82
2022/06/08 06:28:34;;;;;;;1.48;0.30;;;16.50;99.90;;;;;;5055502;28;20037;-87
2022/06/08 06:31:00;;;;;;;0.47;0.10;;;16.60;99.90;;;;;;5038608;28;20049;-81
2022/06/08 06:33:25;;;;;;;0.28;0.28;;;16.70;99.90;;;;;;5054246;28;20057;-81
2022/06/08 06:35:51;;;;;;;0.90;0.52;;;16.70;99.90;;;;;;5055466;28;20454;-82
2022/06/08 06:38:16;;;;;;;0.20;0.17;;;16.80;99.90;;;;;;5039454;28;20053;-82
2022/06/08 06:40:42;;;;;;;0.55;0.38;;;16.90;99.90;;;;;;5055025;28;20072;-82
2022/06/08 06:43:10;;;;;;;0.20;0.20;;;16.90;99.90;;;;;;5038523;28;20128;-82
2022/06/08 06:45:36;;;;;;;0.20;0.20;;;17.00;99.90;;;;;;5038804;28;20476;-82
2022/06/08 06:48:02;;;;;;;0.00;0.00;;;17.10;99.90;;;;;;5038536;28;20087;-82
2022/06/08 06:50:28;;;;;;;0.88;0.70;;;17.20;99.90;;;;;;5055275;28;20041;-82
2022/06/08 06:52:54;;;;;;;0.10;0.10;;;17.20;99.90;;;;;;5038581;28;20130;-82
2022/06/08 06:55:22;;;;;;;0.25;0.00;;;17.30;99.90;;;;;;5055215;28;20045;-82
2022/06/08 06:57:48;;;;;;;0.28;0.10;;;17.30;99.90;;;;;;5038421;28;20041;-83
2022/06/08 07:00:14;;;;;;;0.15;0.15;;;17.40;99.90;;;;;;5054993;28;20097;-82
2022/06/08 07:02:40;;;;;;;4.85;0.70;;;17.40;99.90;;;;;;5055154;28;20044;-82
2022/06/08 07:05:06;;;;;;;0.20;0.13;;;17.50;99.90;;;;;;5054626;28;20053;-82
2022/06/08 07:07:32;;;;;;;0.08;0.08;;;17.50;99.90;;;;;;5054559;28;20049;-83
2022/06/08 07:09:57;;;;;;;0.00;0.00;;;17.50;99.90;;;;;;5054727;28;20052;-82
2022/06/08 07:12:23;;;;;;;1.02;0.55;;;17.60;99.90;;;;;;5055418;28;20053;-82
2022/06/08 07:14:49;;;;;;;0.10;0.10;;;17.70;99.90;;;;;;5038117;28;20381;-82
2022/06/08 07:17:14;;;;;;;0.15;0.15;;;17.80;99.90;;;;;;5054572;28;20091;-83
2022/06/08 07:19:41;;;;;;;0.10;0.10;;;18.00;99.90;;;;;;5054737;28;20040;-83
2022/06/08 07:22:10;;;;;;;0.10;0.00;;;18.10;99.90;;;;;;5038019;28;20057;-83
2022/06/08 07:24:35;;;;;;;0.00;0.00;;;18.20;99.90;;;;;;5055030;28;20049;-82
2022/06/08 07:27:03;;;;;;;0.10;0.10;;;18.30;99.90;;;;;;5054265;28;20448;-83
2022/06/08 07:29:29;;;;;;;0.03;0.03;;;18.40;99.90;;;;;;5037721;28;20048;-82
2022/06/08 07:31:56;;;;;;;0.32;0.32;;;18.40;99.90;;;;;;5054247;28;20211;-83
2022/06/08 07:34:22;;;;;;;2.08;0.17;;;18.50;99.90;;;;;;5037799;28;20056;-83
2022/06/08 07:36:48;;;;;;;0.03;0.03;;;18.50;99.90;;;;;;5054328;28;20052;-82
2022/06/08 07:39:15;;;;;;;0.68;0.50;;;18.60;99.90;;;;;;5037463;28;20496;-82
2022/06/08 07:41:46;;;;;;;0.00;0.00;;;18.60;99.90;;;;;;5038387;28;20048;-82
2022/06/08 07:44:14;;;;;;;0.25;0.10;;;18.80;99.90;;;;;;5054095;28;20138;-83
2022/06/08 07:46:44;;;;;;;0.00;0.00;;;18.90;99.90;;;;;;5054089;28;20100;-82
2022/06/08 07:51:57;;;;;;;0.00;0.00;;;19.10;99.90;;;;;;5054545;28;20098;-82
2022/06/08 07:54:25;;;;;;;0.10;0.10;;;19.20;99.90;;;;;;5054085;28;20048;-82
2022/06/08 07:56:53;;;;;;;0.30;0.10;;;19.30;99.90;;;;;;5053867;28;20048;-83
2022/06/08 07:59:23;;;;;;;0.38;0.03;;;19.40;99.90;;;;;;5037409;28;20049;-82
2022/06/08 08:01:49;;;;;;;0.10;0.00;;;19.40;99.90;;;;;;5053777;28;20037;-83
2022/06/08 08:04:15;;;;;;;2.05;0.90;;;19.40;99.90;;;;;;5036822;28;20127;-82
2022/06/08 08:06:41;;;;;;;0.00;0.00;;;19.40;99.90;;;;;;5037663;28;20060;-83
2022/06/08 08:09:13;;;;;;;0.00;0.00;;;19.50;99.90;;;;;;5037026;28;20063;-82
2022/06/08 08:11:40;;;;;;;1.38;0.25;;;19.60;99.90;;;;;;5053779;28;20047;-82
2022/06/08 08:14:06;;;;;;;0.00;0.00;;;19.60;99.90;;;;;;5053424;28;20049;-82
2022/06/08 08:16:32;;;;;;;0.00;0.00;;;19.60;99.90;;;;;;5036409;28;20060;-82
2022/06/08 08:18:58;;;;;;;1.65;0.32;;;19.60;99.90;;;;;;5054329;28;20111;-83
2022/06/08 08:21:24;;;;;;;0.38;0.38;;;19.60;99.90;;;;;;5053614;28;20072;-83
2022/06/08 08:23:50;;;;;;;0.20;0.20;;;19.80;99.90;;;;;;5053361;28;20091;-83
2022/06/08 08:26:16;;;;;;;0.43;0.20;;;19.80;99.90;;;;;;5036611;28;20053;-83
2022/06/08 08:28:42;;;;;;;0.03;0.03;;;19.80;99.90;;;;;;5036658;28;20045;-82
2022/06/08 08:31:08;;;;;;;0.00;0.00;;;19.80;99.90;;;;;;5036523;28;20500;-82
2022/06/08 08:33:33;;;;;;;0.10;0.10;;;19.90;99.90;;;;;;5036585;28;20139;-83
2022/06/08 08:35:59;;;;;;;1.85;0.10;;;20.00;99.90;;;;;;5052951;28;20043;-83
2022/06/08 08:38:25;;;;;;;0.00;0.00;;;20.10;99.90;;;;;;5053005;28;20049;-83
2022/06/08 08:41:01;;;;;;;0.20;0.20;;;20.20;99.90;;;;;;5053264;28;20080;-83
2022/06/08 08:43:31;;;;;;;0.10;0.05;;;20.20;99.90;;;;;;5052789;28;20382;-82
2022/06/08 08:46:19;;;;;;;0.10;0.10;;;20.40;99.90;;;;;;5053893;28;20053;-83
2022/06/08 08:49:14;;;;;;;0.10;0.10;;;20.60;99.90;;;;;;5052833;28;20041;-83
2022/06/08 08:51:43;;;;;;;0.00;0.00;;;20.70;99.90;;;;;;4960315;28;20058;-83
2022/06/08 08:54:17;;;;;;;0.00;0.00;;;20.90;99.90;;;;;;4960263;28;20216;-83
2022/06/08 08:56:43;;;;;;;0.00;0.00;;;20.90;99.90;;;;;;4976160;28;20051;-83
2022/06/08 08:59:18;;;;;;;0.00;0.00;;;21.00;99.90;;;;;;4960518;28;20056;-83
2022/06/08 09:01:48;;;;;;;0.20;0.20;;;21.10;99.90;;;;;;4976473;28;20046;-83
2022/06/08 09:04:33;;;;;;;0.00;0.00;;;21.00;99.90;;;;;;4960127;28;20418;-82
2022/06/08 09:07:12;;;;;;;0.10;0.05;;;21.00;99.90;;;;;;4976690;28;20141;-82
2022/06/08 09:09:38;;;;;;;0.25;0.10;;;21.10;99.90;;;;;;4976589;28;20145;-84
2022/06/08 09:12:05;;;;;;;1.50;0.38;;;21.10;99.90;;;;;;4976573;28;20046;-84
2022/06/08 09:14:50;;;;;;;0.00;0.00;;;21.10;99.90;;;;;;4960013;28;20487;-84
2022/06/08 09:17:20;;;;;;;0.00;0.00;;;21.20;99.90;;;;;;4976230;28;20061;-83
2022/06/08 09:19:50;;;;;;;0.10;0.08;;;21.40;99.90;;;;;;4960265;28;20081;-84
2022/06/08 09:22:28;;;;;;;0.10;0.10;;;21.40;99.90;;;;;;4976183;28;20179;-84
2022/06/08 09:24:59;;;;;;;0.00;0.00;;;21.40;99.90;;;;;;4960224;28;20085;-83
2022/06/08 09:27:28;;;;;;;0.00;0.00;;;21.20;99.90;;;;;;4976284;28;20129;-83
2022/06/08 09:30:14;;;;;;;0.00;0.00;;;21.10;99.90;;;;;;5050408;28;20400;-83
2022/06/08 09:32:57;;;;;;;0.75;0.20;;;21.10;99.90;;;;;;5052752;28;20179;-83
2022/06/08 09:35:34;;;;;;;0.00;0.00;;;21.20;99.90;;;;;;5052642;28;20103;-85
2022/06/08 09:38:12;;;;;;;0.00;0.00;;;21.40;99.90;;;;;;5052841;28;20095;-84
2022/06/08 09:40:52;;;;;;;0.20;0.20;;;21.40;99.90;;;;;;5052015;28;20198;-84
2022/06/08 09:43:33;;;;;;;0.30;0.20;;;21.50;99.90;;;;;;5052518;28;20041;-84
2022/06/08 09:46:10;;;;;;;0.10;0.10;;;21.70;99.90;;;;;;5052534;28;20045;-83
2022/06/08 09:52:16;;;;;;;0.05;0.05;;;21.90;99.90;;;;;;4975909;28;20046;-84
2022/06/08 09:55:10;;;;;;;0.00;0.00;;;21.80;99.90;;;;;;4976536;28;20042;-83
2022/06/08 09:57:58;;;;;;;0.10;0.00;;;21.80;99.90;;;;;;4959852;28;20120;-83
2022/06/08 10:00:24;;;;;;;0.05;0.05;;;21.80;99.90;;;;;;4975932;28;20045;-83
2022/06/08 10:02:58;;;;;;;0.00;0.00;;;21.80;99.90;;;;;;4959564;28;20062;-83
2022/06/08 10:05:31;;;;;;;0.70;0.30;;;21.80;99.90;;;;;;4975528;28;20065;-82
2022/06/08 10:08:19;;;;;;;0.35;0.10;;;21.90;99.90;;;;;;4978659;28;20481;-83
2022/06/08 10:14:17;;;;;;;0.00;0.00;;;21.90;99.90;;;;;;4978948;28;20509;-84
2022/06/08 10:16:50;;;;;;;1.88;0.35;;;21.90;99.90;;;;;;4979537;28;20407;-83
2022/06/08 10:19:29;;;;;;;0.43;0.20;;;21.90;99.90;;;;;;4979329;28;20057;-83
2022/06/08 10:21:59;;;;;;;0.05;0.05;;;22.00;99.90;;;;;;4962969;28;20062;-83
2022/06/08 10:24:29;;;;;;;0.00;0.00;;;22.20;99.90;;;;;;4979514;28;20050;-83
2022/06/08 10:27:06;;;;;;;1.33;0.15;;;22.50;99.90;;;;;;4978947;28;20495;-84
2022/06/08 10:29:43;;;;;;;0.00;0.00;;;22.70;99.90;;;;;;5052589;28;20069;-84
2022/06/08 10:32:30;;;;;;;0.00;0.00;;;22.70;99.90;;;;;;5056246;28;20045;-83
2022/06/08 10:34:56;;;;;;;0.00;0.00;;;22.90;99.90;;;;;;5055160;28;20110;-84
2022/06/08 10:37:33;;;;;;;0.00;0.00;;;23.00;99.90;;;;;;5038568;28;20053;-83
2022/06/08 10:40:00;;;;;;;0.05;0.00;;;23.00;99.90;;;;;;5038749;28;20123;-83
2022/06/08 10:42:40;;;;;;;0.32;0.20;;;23.00;99.90;;;;;;5038641;28;20059;-83
2022/06/08 10:45:26;;;;;;;0.10;0.10;;;23.10;99.90;;;;;;5038585;28;20136;-83
2022/06/08 10:48:10;;;;;;;0.00;0.00;;;23.30;99.90;;;;;;5038534;28;20036;-84
2022/06/08 10:50:46;;;;;;;0.52;0.17;;;23.30;99.90;;;;;;5055129;28;20056;-84
2022/06/08 10:56:24;;;;;;;0.47;0.47;;;23.40;99.90;;;;;;5055205;28;20492;-84
2022/06/08 10:58:57;;;;;;;0.00;0.00;;;23.60;99.90;;;;;;5038452;28;20056;-83
2022/06/08 11:02:18;;;;;;;0.00;0.00;;;23.80;98.50;;;;;;5039021;28;20076;-84
2022/06/08 11:05:08;;;;;;;0.00;0.00;;;24.00;98.90;;;;;;4977791;28;20057;-84
2022/06/08 11:08:14;;;;;;;0.35;0.00;;;24.20;98.10;;;;;;4978150;28;20054;-83
2022/06/08 11:10:53;;;;;;;0.00;0.00;;;23.90;95.30;;;;;;4904630;29;20436;-83
2022/06/08 11:13:24;;;;;;;1.55;0.40;;;23.70;96.60;;;;;;4920741;29;20056;-84
2022/06/08 11:15:53;;;;;;;0.00;0.00;;;23.60;97.50;;;;;;4904913;29;20590;-83
2022/06/08 11:18:41;;;;;;;0.20;0.20;;;23.20;95.90;;;;;;4920515;29;20408;-83
2022/06/08 11:21:22;;;;;;;0.00;0.00;;;23.00;96.70;;;;;;4904931;29;20059;-83
2022/06/08 11:24:01;;;;;;;0.10;0.03;;;22.80;98.90;;;;;;4904859;29;20050;-83
2022/06/08 11:26:53;;;;;;;0.00;0.00;;;22.70;99.90;;;;;;4936980;29;20047;-83
2022/06/08 11:29:21;;;;;;;0.00;0.00;;;22.50;98.80;;;;;;4920406;29;20520;-83
2022/06/08 11:31:52;;;;;;;0.00;0.00;;;22.40;98.80;;;;;;4904683;29;20052;-83
2022/06/08 11:34:21;;;;;;;0.00;0.00;;;22.30;99.20;;;;;;4904415;29;20575;-82
2022/06/08 11:37:21;;;;;;;0.00;0.00;;;22.30;99.90;;;;;;4904487;29;20462;-83
2022/06/08 11:39:51;;;;;;;0.00;0.00;;;22.10;99.70;;;;;;4904678;29;20058;-82
2022/06/08 11:42:27;;;;;;;0.00;0.00;;;22.00;99.90;;;;;;4974881;28;20511;-82
2022/06/08 11:45:13;;;;;;;0.45;0.00;;;21.90;99.90;;;;;;4961405;28;20093;-82
2022/06/08 11:48:12;;;;;;;0.00;0.00;;;21.80;99.90;;;;;;5006129;28;20135;-83
2022/06/08 11:50:50;;;;;;;0.45;0.10;;;21.70;99.90;;;;;;5054167;28;20052;-82
2022/06/08 11:53:42;;;;;;;0.00;0.00;;;21.40;99.90;;;;;;5037346;28;20052;-82
2022/06/08 11:56:29;;;;;;;0.00;0.00;;;21.00;99.90;;;;;;5054046;28;20048;-83
2022/06/08 11:58:59;;;;;;;0.00;0.00;;;20.50;99.90;;;;;;5053752;28;20516;-82
2022/06/08 12:01:31;;;;;;;0.20;0.20;;;20.10;99.90;;;;;;5053857;28;20084;-82
2022/06/08 12:04:06;;;;;;;0.10;0.10;;;19.80;99.90;;;;;;5037220;28;20059;-82
2022/06/08 12:06:35;;;;;;;0.00;0.00;;;19.50;99.90;;;;;;5037254;28;20053;-83
2022/06/08 12:09:18;;;;;;;0.00;0.00;;;19.40;99.90;;;;;;5036515;28;20060;-83
2022/06/08 12:12:09;;;;;;;0.00;0.00;;;19.30;99.90;;;;;;5053384;28;20123;-83
2022/06/08 12:14:37;;;;;;;0.00;0.00;;;19.20;99.90;;;;;;5036220;28;20114;-82
2022/06/08 12:17:25;;;;;;;0.00;0.00;;;19.10;99.90;;;;;;5053979;28;20091;-81
2022/06/08 12:19:55;;;;;;;0.00;0.00;;;19.10;99.90;;;;;;4977049;28;20057;-81
2022/06/08 12:22:29;;;;;;;0.00;0.00;;;19.10;99.90;;;;;;4960959;28;20577;-82
2022/06/08 12:25:09;;;;;;;0.00;0.00;;;19.00;99.90;;;;;;4977591;28;20441;-82
2022/06/08 12:27:40;;;;;;;0.00;0.00;;;18.90;99.90;;;;;;4977008;28;20043;-82
2022/06/08 12:30:26;;;;;;;0.00;0.00;;;18.90;99.90;;;;;;4975941;28;20094;-82
2022/06/08 12:32:53;;;;;;;0.00;0.00;;;18.90;99.90;;;;;;4960880;28;20054;-81
2022/06/08 12:35:31;;;;;;;0.00;0.00;;;19.00;99.90;;;;;;4976928;28;20137;-82
2022/06/08 12:38:17;;;;;;;0.35;0.35;;;19.00;99.90;;;;;;4976684;28;20054;-82
2022/06/08 12:41:15;;;;;;;0.10;0.10;;;19.00;99.90;;;;;;4976664;28;20053;-82
2022/06/08 12:44:13;;;;;;;0.22;0.22;;;19.00;99.90;;;;;;4977076;28;20061;-82
2022/06/08 12:46:58;;;;;;;0.00;0.00;;;19.00;99.90;;;;;;4960769;28;20158;-82
2022/06/08 12:49:26;;;;;;;0.03;0.03;;;19.10;99.90;;;;;;4959698;28;20054;-82
2022/06/08 12:51:59;;;;;;;0.00;0.00;;;19.20;99.90;;;;;;4960334;28;20057;-82
2022/06/08 12:54:32;;;;;;;0.00;0.00;;;19.20;99.90;;;;;;4976989;28;20046;-82
2022/06/08 12:57:16;;;;;;;0.00;0.00;;;19.20;99.90;;;;;;4997924;28;20110;-82
2022/06/08 12:59:43;;;;;;;0.10;0.00;;;19.20;99.90;;;;;;5035928;28;20151;-82
2022/06/08 13:02:16;;;;;;;0.00;0.00;;;19.20;99.90;;;;;;5052763;28;20053;-83
2022/06/08 13:04:42;;;;;;;0.00;0.00;;;19.30;99.90;;;;;;5052380;28;20063;-82
2022/06/08 13:07:16;;;;;;;0.10;0.03;;;19.40;99.90;;;;;;5035963;28;20047;-82
2022/06/08 13:09:43;;;;;;;0.00;0.00;;;19.60;99.90;;;;;;5036203;28;20063;-82
2022/06/08 13:12:12;;;;;;;0.05;0.05;;;19.90;99.90;;;;;;5052657;28;20110;-82
2022/06/08 13:14:39;;;;;;;0.00;0.00;;;20.10;99.90;;;;;;5036007;28;20041;-82
2022/06/08 13:17:05;;;;;;;0.10;0.10;;;20.20;99.90;;;;;;5036026;28;20102;-82
2022/06/08 13:19:31;;;;;;;0.22;0.22;;;20.20;99.90;;;;;;5035988;28;20456;-82
2022/06/08 13:21:57;;;;;;;0.00;0.00;;;20.20;99.90;;;;;;5036234;28;20052;-82
2022/06/08 13:24:22;;;;;;;0.10;0.00;;;20.10;99.90;;;;;;5052668;28;20045;-82
2022/06/08 13:26:48;;;;;;;0.00;0.00;;;20.00;99.90;;;;;;5035846;28;20057;-82
2022/06/08 13:29:16;;;;;;;0.38;0.20;;;19.80;99.90;;;;;;5052253;28;20041;-82
2022/06/08 13:31:42;;;;;;;0.00;0.00;;;19.70;99.90;;;;;;5052530;28;20045;-82